<?xml version="1.0" encoding="UTF-8" standalone="no" ?>
<gpx xmlns="http://www.topografix.com/GPX/1/1" xmlns:xsi="http://www.w3.org/2001/XMLSchema-instance" xsi:schemaLocation="http://www.topografix.com/GPX/1/1 http://www.topografix.com/GPX/1/1/gpx.xsd" version="1.1" creator="VisuGPX - https://www.visugpx.com">
  <metadata>
    <name>Sortie Moto</name>
  </metadata>
  <trk>
    <name><![CDATA[Journal actif: 2020-04-19 10:15]]></name>
    <trkseg>
      <trkpt lat="46.06799" lon="6.30765">
        <ele>575.01</ele>
        <time>2020-04-19T08:15:36Z</time>
      </trkpt>
      <trkpt lat="46.06805" lon="6.30797">
        <ele>574.53</ele>
        <time>2020-04-19T08:15:40Z</time>
      </trkpt>
      <trkpt lat="46.06808" lon="6.30812">
        <ele>574.04</ele>
        <time>2020-04-19T08:15:41Z</time>
      </trkpt>
      <trkpt lat="46.0681" lon="6.30826">
        <ele>572.12</ele>
        <time>2020-04-19T08:15:42Z</time>
      </trkpt>
      <trkpt lat="46.06812" lon="6.30844">
        <ele>570.2</ele>
        <time>2020-04-19T08:15:43Z</time>
      </trkpt>
      <trkpt lat="46.06812" lon="6.30856">
        <ele>568.76</ele>
        <time>2020-04-19T08:15:44Z</time>
      </trkpt>
      <trkpt lat="46.06812" lon="6.30868">
        <ele>567.8</ele>
        <time>2020-04-19T08:15:45Z</time>
      </trkpt>
      <trkpt lat="46.06812" lon="6.30877">
        <ele>567.32</ele>
        <time>2020-04-19T08:15:46Z</time>
      </trkpt>
      <trkpt lat="46.06812" lon="6.30916">
        <ele>566.35</ele>
        <time>2020-04-19T08:15:47Z</time>
      </trkpt>
      <trkpt lat="46.06812" lon="6.30916">
        <ele>565.39</ele>
        <time>2020-04-19T08:15:48Z</time>
      </trkpt>
      <trkpt lat="46.06812" lon="6.30916">
        <ele>564.43</ele>
        <time>2020-04-19T08:15:49Z</time>
      </trkpt>
      <trkpt lat="46.06829" lon="6.30907">
        <ele>563.95</ele>
        <time>2020-04-19T08:15:50Z</time>
      </trkpt>
      <trkpt lat="46.06833" lon="6.309">
        <ele>563.47</ele>
        <time>2020-04-19T08:15:51Z</time>
      </trkpt>
      <trkpt lat="46.0684" lon="6.30891">
        <ele>562.51</ele>
        <time>2020-04-19T08:15:52Z</time>
      </trkpt>
      <trkpt lat="46.06849" lon="6.30881">
        <ele>562.03</ele>
        <time>2020-04-19T08:15:53Z</time>
      </trkpt>
      <trkpt lat="46.06858" lon="6.30869">
        <ele>561.55</ele>
        <time>2020-04-19T08:15:54Z</time>
      </trkpt>
      <trkpt lat="46.06908" lon="6.30805">
        <ele>559.62</ele>
        <time>2020-04-19T08:15:59Z</time>
      </trkpt>
      <trkpt lat="46.06919" lon="6.30789">
        <ele>559.62</ele>
        <time>2020-04-19T08:16:00Z</time>
      </trkpt>
      <trkpt lat="46.06929" lon="6.3077">
        <ele>559.14</ele>
        <time>2020-04-19T08:16:01Z</time>
      </trkpt>
      <trkpt lat="46.06957" lon="6.30697">
        <ele>559.14</ele>
        <time>2020-04-19T08:16:05Z</time>
      </trkpt>
      <trkpt lat="46.06961" lon="6.30678">
        <ele>558.66</ele>
        <time>2020-04-19T08:16:06Z</time>
      </trkpt>
      <trkpt lat="46.06965" lon="6.30659">
        <ele>558.66</ele>
        <time>2020-04-19T08:16:07Z</time>
      </trkpt>
      <trkpt lat="46.06981" lon="6.30589">
        <ele>555.3</ele>
        <time>2020-04-19T08:16:11Z</time>
      </trkpt>
      <trkpt lat="46.06991" lon="6.30561">
        <ele>553.86</ele>
        <time>2020-04-19T08:16:13Z</time>
      </trkpt>
      <trkpt lat="46.06997" lon="6.30544">
        <ele>553.38</ele>
        <time>2020-04-19T08:16:14Z</time>
      </trkpt>
      <trkpt lat="46.07001" lon="6.30535">
        <ele>553.86</ele>
        <time>2020-04-19T08:16:15Z</time>
      </trkpt>
      <trkpt lat="46.07007" lon="6.30523">
        <ele>554.34</ele>
        <time>2020-04-19T08:16:16Z</time>
      </trkpt>
      <trkpt lat="46.07018" lon="6.30519">
        <ele>554.82</ele>
        <time>2020-04-19T08:16:17Z</time>
      </trkpt>
      <trkpt lat="46.07074" lon="6.30479">
        <ele>561.07</ele>
        <time>2020-04-19T08:16:22Z</time>
      </trkpt>
      <trkpt lat="46.07087" lon="6.30473">
        <ele>561.55</ele>
        <time>2020-04-19T08:16:23Z</time>
      </trkpt>
      <trkpt lat="46.07113" lon="6.3046">
        <ele>562.51</ele>
        <time>2020-04-19T08:16:25Z</time>
      </trkpt>
      <trkpt lat="46.0721" lon="6.30418">
        <ele>565.87</ele>
        <time>2020-04-19T08:16:32Z</time>
      </trkpt>
      <trkpt lat="46.07238" lon="6.30407">
        <ele>566.83</ele>
        <time>2020-04-19T08:16:35Z</time>
      </trkpt>
      <trkpt lat="46.07243" lon="6.30405">
        <ele>567.32</ele>
        <time>2020-04-19T08:16:36Z</time>
      </trkpt>
      <trkpt lat="46.07247" lon="6.30416">
        <ele>567.32</ele>
        <time>2020-04-19T08:16:37Z</time>
      </trkpt>
      <trkpt lat="46.07251" lon="6.30427">
        <ele>567.32</ele>
        <time>2020-04-19T08:16:38Z</time>
      </trkpt>
      <trkpt lat="46.07255" lon="6.30438">
        <ele>567.32</ele>
        <time>2020-04-19T08:16:39Z</time>
      </trkpt>
      <trkpt lat="46.07258" lon="6.30448">
        <ele>567.32</ele>
        <time>2020-04-19T08:16:40Z</time>
      </trkpt>
      <trkpt lat="46.07261" lon="6.30456">
        <ele>567.32</ele>
        <time>2020-04-19T08:16:41Z</time>
      </trkpt>
      <trkpt lat="46.07263" lon="6.30461">
        <ele>567.32</ele>
        <time>2020-04-19T08:16:42Z</time>
      </trkpt>
      <trkpt lat="46.0727" lon="6.30464">
        <ele>567.8</ele>
        <time>2020-04-19T08:16:43Z</time>
      </trkpt>
      <trkpt lat="46.07275" lon="6.3046">
        <ele>567.8</ele>
        <time>2020-04-19T08:16:44Z</time>
      </trkpt>
      <trkpt lat="46.07283" lon="6.30455">
        <ele>567.8</ele>
        <time>2020-04-19T08:16:45Z</time>
      </trkpt>
      <trkpt lat="46.07294" lon="6.30448">
        <ele>568.28</ele>
        <time>2020-04-19T08:16:46Z</time>
      </trkpt>
      <trkpt lat="46.07378" lon="6.30406">
        <ele>568.76</ele>
        <time>2020-04-19T08:16:51Z</time>
      </trkpt>
      <trkpt lat="46.07506" lon="6.30398">
        <ele>565.39</ele>
        <time>2020-04-19T08:16:57Z</time>
      </trkpt>
      <trkpt lat="46.07566" lon="6.30404">
        <ele>561.55</ele>
        <time>2020-04-19T08:17:01Z</time>
      </trkpt>
      <trkpt lat="46.07576" lon="6.30409">
        <ele>560.59</ele>
        <time>2020-04-19T08:17:02Z</time>
      </trkpt>
      <trkpt lat="46.07583" lon="6.30417">
        <ele>560.11</ele>
        <time>2020-04-19T08:17:03Z</time>
      </trkpt>
      <trkpt lat="46.07591" lon="6.30422">
        <ele>560.11</ele>
        <time>2020-04-19T08:17:04Z</time>
      </trkpt>
      <trkpt lat="46.07596" lon="6.30427">
        <ele>559.14</ele>
        <time>2020-04-19T08:17:05Z</time>
      </trkpt>
      <trkpt lat="46.07601" lon="6.30437">
        <ele>558.18</ele>
        <time>2020-04-19T08:17:06Z</time>
      </trkpt>
      <trkpt lat="46.07603" lon="6.30447">
        <ele>557.7</ele>
        <time>2020-04-19T08:17:07Z</time>
      </trkpt>
      <trkpt lat="46.076" lon="6.30461">
        <ele>557.22</ele>
        <time>2020-04-19T08:17:08Z</time>
      </trkpt>
      <trkpt lat="46.07593" lon="6.30474">
        <ele>556.26</ele>
        <time>2020-04-19T08:17:09Z</time>
      </trkpt>
      <trkpt lat="46.07587" lon="6.30486">
        <ele>555.78</ele>
        <time>2020-04-19T08:17:10Z</time>
      </trkpt>
      <trkpt lat="46.07579" lon="6.30503">
        <ele>555.3</ele>
        <time>2020-04-19T08:17:11Z</time>
      </trkpt>
      <trkpt lat="46.07521" lon="6.30654">
        <ele>551.45</ele>
        <time>2020-04-19T08:17:17Z</time>
      </trkpt>
      <trkpt lat="46.07481" lon="6.30862">
        <ele>544.72</ele>
        <time>2020-04-19T08:17:23Z</time>
      </trkpt>
      <trkpt lat="46.07466" lon="6.31102">
        <ele>535.59</ele>
        <time>2020-04-19T08:17:30Z</time>
      </trkpt>
      <trkpt lat="46.07446" lon="6.31245">
        <ele>528.86</ele>
        <time>2020-04-19T08:17:35Z</time>
      </trkpt>
      <trkpt lat="46.07414" lon="6.3133">
        <ele>524.54</ele>
        <time>2020-04-19T08:17:40Z</time>
      </trkpt>
      <trkpt lat="46.07398" lon="6.31348">
        <ele>523.58</ele>
        <time>2020-04-19T08:17:42Z</time>
      </trkpt>
      <trkpt lat="46.07395" lon="6.31359">
        <ele>523.58</ele>
        <time>2020-04-19T08:17:43Z</time>
      </trkpt>
      <trkpt lat="46.07396" lon="6.31376">
        <ele>523.09</ele>
        <time>2020-04-19T08:17:44Z</time>
      </trkpt>
      <trkpt lat="46.07399" lon="6.31387">
        <ele>522.61</ele>
        <time>2020-04-19T08:17:45Z</time>
      </trkpt>
      <trkpt lat="46.07407" lon="6.31399">
        <ele>522.61</ele>
        <time>2020-04-19T08:17:46Z</time>
      </trkpt>
      <trkpt lat="46.07415" lon="6.31405">
        <ele>523.09</ele>
        <time>2020-04-19T08:17:47Z</time>
      </trkpt>
      <trkpt lat="46.07426" lon="6.31402">
        <ele>523.09</ele>
        <time>2020-04-19T08:17:48Z</time>
      </trkpt>
      <trkpt lat="46.07439" lon="6.31414">
        <ele>522.61</ele>
        <time>2020-04-19T08:17:49Z</time>
      </trkpt>
      <trkpt lat="46.07445" lon="6.31427">
        <ele>522.13</ele>
        <time>2020-04-19T08:17:50Z</time>
      </trkpt>
      <trkpt lat="46.07449" lon="6.31437">
        <ele>521.65</ele>
        <time>2020-04-19T08:17:51Z</time>
      </trkpt>
      <trkpt lat="46.07451" lon="6.31448">
        <ele>520.21</ele>
        <time>2020-04-19T08:17:52Z</time>
      </trkpt>
      <trkpt lat="46.07452" lon="6.31456">
        <ele>519.25</ele>
        <time>2020-04-19T08:17:53Z</time>
      </trkpt>
      <trkpt lat="46.07447" lon="6.31463">
        <ele>518.29</ele>
        <time>2020-04-19T08:17:54Z</time>
      </trkpt>
      <trkpt lat="46.07443" lon="6.3147">
        <ele>517.81</ele>
        <time>2020-04-19T08:17:55Z</time>
      </trkpt>
      <trkpt lat="46.0744" lon="6.31474">
        <ele>516.85</ele>
        <time>2020-04-19T08:17:56Z</time>
      </trkpt>
      <trkpt lat="46.07435" lon="6.31477">
        <ele>516.37</ele>
        <time>2020-04-19T08:17:57Z</time>
      </trkpt>
      <trkpt lat="46.07432" lon="6.31473">
        <ele>515.4</ele>
        <time>2020-04-19T08:17:58Z</time>
      </trkpt>
      <trkpt lat="46.0743" lon="6.31469">
        <ele>514.44</ele>
        <time>2020-04-19T08:17:59Z</time>
      </trkpt>
      <trkpt lat="46.07431" lon="6.31461">
        <ele>513.96</ele>
        <time>2020-04-19T08:18:00Z</time>
      </trkpt>
      <trkpt lat="46.07434" lon="6.31458">
        <ele>513.48</ele>
        <time>2020-04-19T08:18:01Z</time>
      </trkpt>
      <trkpt lat="46.07434" lon="6.31458">
        <ele>512.52</ele>
        <time>2020-04-19T08:18:09Z</time>
      </trkpt>
      <trkpt lat="46.07439" lon="6.3146">
        <ele>526.94</ele>
        <time>2020-04-19T08:20:40Z</time>
      </trkpt>
      <trkpt lat="46.07436" lon="6.31455">
        <ele>524.54</ele>
        <time>2020-04-19T08:20:42Z</time>
      </trkpt>
      <trkpt lat="46.07452" lon="6.31456">
        <ele>523.09</ele>
        <time>2020-04-19T08:20:46Z</time>
      </trkpt>
      <trkpt lat="46.07452" lon="6.31456">
        <ele>521.65</ele>
        <time>2020-04-19T08:20:47Z</time>
      </trkpt>
      <trkpt lat="46.07441" lon="6.31473">
        <ele>523.58</ele>
        <time>2020-04-19T08:20:48Z</time>
      </trkpt>
      <trkpt lat="46.07437" lon="6.3148">
        <ele>525.02</ele>
        <time>2020-04-19T08:20:49Z</time>
      </trkpt>
      <trkpt lat="46.07437" lon="6.3148">
        <ele>527.9</ele>
        <time>2020-04-19T08:20:50Z</time>
      </trkpt>
      <trkpt lat="46.07434" lon="6.31475">
        <ele>528.86</ele>
        <time>2020-04-19T08:20:51Z</time>
      </trkpt>
      <trkpt lat="46.07436" lon="6.31478">
        <ele>529.82</ele>
        <time>2020-04-19T08:20:52Z</time>
      </trkpt>
      <trkpt lat="46.07439" lon="6.31477">
        <ele>528.86</ele>
        <time>2020-04-19T08:20:53Z</time>
      </trkpt>
      <trkpt lat="46.07442" lon="6.31471">
        <ele>527.9</ele>
        <time>2020-04-19T08:20:54Z</time>
      </trkpt>
      <trkpt lat="46.07447" lon="6.31463">
        <ele>525.98</ele>
        <time>2020-04-19T08:20:55Z</time>
      </trkpt>
      <trkpt lat="46.07452" lon="6.31456">
        <ele>523.58</ele>
        <time>2020-04-19T08:20:56Z</time>
      </trkpt>
      <trkpt lat="46.07451" lon="6.31452">
        <ele>524.06</ele>
        <time>2020-04-19T08:20:57Z</time>
      </trkpt>
      <trkpt lat="46.07449" lon="6.31437">
        <ele>524.06</ele>
        <time>2020-04-19T08:20:58Z</time>
      </trkpt>
      <trkpt lat="46.07447" lon="6.31432">
        <ele>524.06</ele>
        <time>2020-04-19T08:20:59Z</time>
      </trkpt>
      <trkpt lat="46.07441" lon="6.31419">
        <ele>522.61</ele>
        <time>2020-04-19T08:21:00Z</time>
      </trkpt>
      <trkpt lat="46.07458" lon="6.31398">
        <ele>521.65</ele>
        <time>2020-04-19T08:21:01Z</time>
      </trkpt>
      <trkpt lat="46.07443" lon="6.31379">
        <ele>521.17</ele>
        <time>2020-04-19T08:21:02Z</time>
      </trkpt>
      <trkpt lat="46.07445" lon="6.31366">
        <ele>521.65</ele>
        <time>2020-04-19T08:21:03Z</time>
      </trkpt>
      <trkpt lat="46.07441" lon="6.31354">
        <ele>521.65</ele>
        <time>2020-04-19T08:21:04Z</time>
      </trkpt>
      <trkpt lat="46.07437" lon="6.31343">
        <ele>521.65</ele>
        <time>2020-04-19T08:21:05Z</time>
      </trkpt>
      <trkpt lat="46.07428" lon="6.31334">
        <ele>522.13</ele>
        <time>2020-04-19T08:21:06Z</time>
      </trkpt>
      <trkpt lat="46.07421" lon="6.31333">
        <ele>522.13</ele>
        <time>2020-04-19T08:21:07Z</time>
      </trkpt>
      <trkpt lat="46.07411" lon="6.31333">
        <ele>521.65</ele>
        <time>2020-04-19T08:21:08Z</time>
      </trkpt>
      <trkpt lat="46.07401" lon="6.31342">
        <ele>521.65</ele>
        <time>2020-04-19T08:21:09Z</time>
      </trkpt>
      <trkpt lat="46.07396" lon="6.31355">
        <ele>521.17</ele>
        <time>2020-04-19T08:21:10Z</time>
      </trkpt>
      <trkpt lat="46.07394" lon="6.31364">
        <ele>521.65</ele>
        <time>2020-04-19T08:21:11Z</time>
      </trkpt>
      <trkpt lat="46.07397" lon="6.31382">
        <ele>521.65</ele>
        <time>2020-04-19T08:21:12Z</time>
      </trkpt>
      <trkpt lat="46.074" lon="6.31393">
        <ele>521.65</ele>
        <time>2020-04-19T08:21:13Z</time>
      </trkpt>
      <trkpt lat="46.07397" lon="6.31403">
        <ele>521.65</ele>
        <time>2020-04-19T08:21:14Z</time>
      </trkpt>
      <trkpt lat="46.07393" lon="6.31414">
        <ele>521.17</ele>
        <time>2020-04-19T08:21:15Z</time>
      </trkpt>
      <trkpt lat="46.07389" lon="6.31425">
        <ele>520.69</ele>
        <time>2020-04-19T08:21:16Z</time>
      </trkpt>
      <trkpt lat="46.07385" lon="6.31437">
        <ele>520.21</ele>
        <time>2020-04-19T08:21:17Z</time>
      </trkpt>
      <trkpt lat="46.07379" lon="6.31454">
        <ele>520.21</ele>
        <time>2020-04-19T08:21:18Z</time>
      </trkpt>
      <trkpt lat="46.07374" lon="6.3146">
        <ele>519.73</ele>
        <time>2020-04-19T08:21:19Z</time>
      </trkpt>
      <trkpt lat="46.07304" lon="6.31542">
        <ele>519.25</ele>
        <time>2020-04-19T08:21:26Z</time>
      </trkpt>
      <trkpt lat="46.07178" lon="6.3173">
        <ele>515.88</ele>
        <time>2020-04-19T08:21:37Z</time>
      </trkpt>
      <trkpt lat="46.07084" lon="6.31905">
        <ele>513.96</ele>
        <time>2020-04-19T08:21:46Z</time>
      </trkpt>
      <trkpt lat="46.07033" lon="6.32057">
        <ele>513</ele>
        <time>2020-04-19T08:21:53Z</time>
      </trkpt>
      <trkpt lat="46.07022" lon="6.32066">
        <ele>513</ele>
        <time>2020-04-19T08:21:54Z</time>
      </trkpt>
      <trkpt lat="46.07014" lon="6.32076">
        <ele>513</ele>
        <time>2020-04-19T08:21:55Z</time>
      </trkpt>
      <trkpt lat="46.07007" lon="6.32084">
        <ele>513</ele>
        <time>2020-04-19T08:21:56Z</time>
      </trkpt>
      <trkpt lat="46.06999" lon="6.32094">
        <ele>513</ele>
        <time>2020-04-19T08:21:57Z</time>
      </trkpt>
      <trkpt lat="46.06993" lon="6.32092">
        <ele>513.48</ele>
        <time>2020-04-19T08:21:58Z</time>
      </trkpt>
      <trkpt lat="46.06986" lon="6.32089">
        <ele>513.96</ele>
        <time>2020-04-19T08:21:59Z</time>
      </trkpt>
      <trkpt lat="46.06979" lon="6.32079">
        <ele>513.96</ele>
        <time>2020-04-19T08:22:00Z</time>
      </trkpt>
      <trkpt lat="46.06975" lon="6.32066">
        <ele>513.96</ele>
        <time>2020-04-19T08:22:01Z</time>
      </trkpt>
      <trkpt lat="46.06969" lon="6.32049">
        <ele>514.44</ele>
        <time>2020-04-19T08:22:02Z</time>
      </trkpt>
      <trkpt lat="46.06951" lon="6.31983">
        <ele>516.37</ele>
        <time>2020-04-19T08:22:07Z</time>
      </trkpt>
      <trkpt lat="46.06949" lon="6.31977">
        <ele>516.85</ele>
        <time>2020-04-19T08:22:08Z</time>
      </trkpt>
      <trkpt lat="46.06948" lon="6.31973">
        <ele>517.33</ele>
        <time>2020-04-19T08:22:09Z</time>
      </trkpt>
      <trkpt lat="46.06947" lon="6.31971">
        <ele>517.81</ele>
        <time>2020-04-19T08:22:10Z</time>
      </trkpt>
      <trkpt lat="46.06966" lon="6.31961">
        <ele>519.25</ele>
        <time>2020-04-19T08:22:16Z</time>
      </trkpt>
      <trkpt lat="46.06967" lon="6.31961">
        <ele>520.69</ele>
        <time>2020-04-19T08:22:21Z</time>
      </trkpt>
      <trkpt lat="46.06969" lon="6.31956">
        <ele>521.17</ele>
        <time>2020-04-19T08:22:24Z</time>
      </trkpt>
      <trkpt lat="46.06969" lon="6.31948">
        <ele>522.61</ele>
        <time>2020-04-19T08:22:38Z</time>
      </trkpt>
      <trkpt lat="46.06969" lon="6.31948">
        <ele>523.09</ele>
        <time>2020-04-19T08:23:22Z</time>
      </trkpt>
      <trkpt lat="46.06942" lon="6.31955">
        <ele>520.21</ele>
        <time>2020-04-19T08:37:39Z</time>
      </trkpt>
      <trkpt lat="46.06941" lon="6.31952">
        <ele>518.77</ele>
        <time>2020-04-19T08:37:40Z</time>
      </trkpt>
      <trkpt lat="46.0694" lon="6.3195">
        <ele>517.81</ele>
        <time>2020-04-19T08:37:41Z</time>
      </trkpt>
      <trkpt lat="46.06942" lon="6.31956">
        <ele>516.37</ele>
        <time>2020-04-19T08:37:46Z</time>
      </trkpt>
      <trkpt lat="46.06943" lon="6.31957">
        <ele>515.4</ele>
        <time>2020-04-19T08:37:47Z</time>
      </trkpt>
      <trkpt lat="46.06944" lon="6.31962">
        <ele>515.4</ele>
        <time>2020-04-19T08:37:48Z</time>
      </trkpt>
      <trkpt lat="46.06946" lon="6.31966">
        <ele>513</ele>
        <time>2020-04-19T08:37:49Z</time>
      </trkpt>
      <trkpt lat="46.06943" lon="6.31959">
        <ele>515.4</ele>
        <time>2020-04-19T08:37:52Z</time>
      </trkpt>
      <trkpt lat="46.06925" lon="6.31903">
        <ele>517.81</ele>
        <time>2020-04-19T08:37:56Z</time>
      </trkpt>
      <trkpt lat="46.06888" lon="6.31782">
        <ele>522.13</ele>
        <time>2020-04-19T08:38:02Z</time>
      </trkpt>
      <trkpt lat="46.06844" lon="6.31638">
        <ele>531.27</ele>
        <time>2020-04-19T08:38:11Z</time>
      </trkpt>
      <trkpt lat="46.06827" lon="6.31587">
        <ele>532.71</ele>
        <time>2020-04-19T08:38:14Z</time>
      </trkpt>
      <trkpt lat="46.06822" lon="6.3157">
        <ele>533.67</ele>
        <time>2020-04-19T08:38:15Z</time>
      </trkpt>
      <trkpt lat="46.06801" lon="6.31506">
        <ele>537.03</ele>
        <time>2020-04-19T08:38:19Z</time>
      </trkpt>
      <trkpt lat="46.06797" lon="6.31493">
        <ele>537.99</ele>
        <time>2020-04-19T08:38:20Z</time>
      </trkpt>
      <trkpt lat="46.06793" lon="6.31482">
        <ele>538.96</ele>
        <time>2020-04-19T08:38:21Z</time>
      </trkpt>
      <trkpt lat="46.0679" lon="6.31472">
        <ele>539.44</ele>
        <time>2020-04-19T08:38:22Z</time>
      </trkpt>
      <trkpt lat="46.06788" lon="6.31466">
        <ele>539.92</ele>
        <time>2020-04-19T08:38:23Z</time>
      </trkpt>
      <trkpt lat="46.06795" lon="6.31443">
        <ele>540.4</ele>
        <time>2020-04-19T08:38:24Z</time>
      </trkpt>
      <trkpt lat="46.06798" lon="6.31443">
        <ele>540.88</ele>
        <time>2020-04-19T08:38:25Z</time>
      </trkpt>
      <trkpt lat="46.06802" lon="6.31443">
        <ele>541.36</ele>
        <time>2020-04-19T08:38:26Z</time>
      </trkpt>
      <trkpt lat="46.06808" lon="6.31444">
        <ele>541.84</ele>
        <time>2020-04-19T08:38:27Z</time>
      </trkpt>
      <trkpt lat="46.06816" lon="6.31444">
        <ele>542.8</ele>
        <time>2020-04-19T08:38:28Z</time>
      </trkpt>
      <trkpt lat="46.06825" lon="6.31445">
        <ele>544.24</ele>
        <time>2020-04-19T08:38:29Z</time>
      </trkpt>
      <trkpt lat="46.06851" lon="6.31447">
        <ele>548.09</ele>
        <time>2020-04-19T08:38:31Z</time>
      </trkpt>
      <trkpt lat="46.06866" lon="6.31448">
        <ele>550.49</ele>
        <time>2020-04-19T08:38:32Z</time>
      </trkpt>
      <trkpt lat="46.06882" lon="6.31446">
        <ele>551.93</ele>
        <time>2020-04-19T08:38:33Z</time>
      </trkpt>
      <trkpt lat="46.06899" lon="6.31444">
        <ele>553.38</ele>
        <time>2020-04-19T08:38:34Z</time>
      </trkpt>
      <trkpt lat="46.06914" lon="6.31442">
        <ele>554.82</ele>
        <time>2020-04-19T08:38:35Z</time>
      </trkpt>
      <trkpt lat="46.06929" lon="6.3144">
        <ele>555.78</ele>
        <time>2020-04-19T08:38:36Z</time>
      </trkpt>
      <trkpt lat="46.06982" lon="6.31431">
        <ele>553.86</ele>
        <time>2020-04-19T08:38:40Z</time>
      </trkpt>
      <trkpt lat="46.07055" lon="6.3142">
        <ele>547.61</ele>
        <time>2020-04-19T08:38:47Z</time>
      </trkpt>
      <trkpt lat="46.07186" lon="6.31397">
        <ele>540.88</ele>
        <time>2020-04-19T08:38:57Z</time>
      </trkpt>
      <trkpt lat="46.07328" lon="6.31372">
        <ele>536.07</ele>
        <time>2020-04-19T08:39:07Z</time>
      </trkpt>
      <trkpt lat="46.07341" lon="6.3137">
        <ele>535.59</ele>
        <time>2020-04-19T08:39:08Z</time>
      </trkpt>
      <trkpt lat="46.07352" lon="6.31368">
        <ele>535.11</ele>
        <time>2020-04-19T08:39:09Z</time>
      </trkpt>
      <trkpt lat="46.07364" lon="6.31366">
        <ele>534.15</ele>
        <time>2020-04-19T08:39:10Z</time>
      </trkpt>
      <trkpt lat="46.07374" lon="6.31366">
        <ele>533.67</ele>
        <time>2020-04-19T08:39:11Z</time>
      </trkpt>
      <trkpt lat="46.07384" lon="6.31365">
        <ele>533.19</ele>
        <time>2020-04-19T08:39:12Z</time>
      </trkpt>
      <trkpt lat="46.074" lon="6.31394">
        <ele>532.71</ele>
        <time>2020-04-19T08:39:13Z</time>
      </trkpt>
      <trkpt lat="46.07413" lon="6.31404">
        <ele>532.71</ele>
        <time>2020-04-19T08:39:14Z</time>
      </trkpt>
      <trkpt lat="46.07413" lon="6.31404">
        <ele>532.23</ele>
        <time>2020-04-19T08:39:15Z</time>
      </trkpt>
      <trkpt lat="46.07415" lon="6.31405">
        <ele>531.75</ele>
        <time>2020-04-19T08:39:16Z</time>
      </trkpt>
      <trkpt lat="46.07438" lon="6.31411">
        <ele>531.27</ele>
        <time>2020-04-19T08:39:17Z</time>
      </trkpt>
      <trkpt lat="46.07448" lon="6.31435">
        <ele>530.79</ele>
        <time>2020-04-19T08:39:18Z</time>
      </trkpt>
      <trkpt lat="46.07448" lon="6.31435">
        <ele>530.3</ele>
        <time>2020-04-19T08:39:19Z</time>
      </trkpt>
      <trkpt lat="46.07451" lon="6.31448">
        <ele>529.82</ele>
        <time>2020-04-19T08:39:20Z</time>
      </trkpt>
      <trkpt lat="46.07448" lon="6.31461">
        <ele>529.34</ele>
        <time>2020-04-19T08:39:21Z</time>
      </trkpt>
      <trkpt lat="46.07443" lon="6.31469">
        <ele>528.86</ele>
        <time>2020-04-19T08:39:22Z</time>
      </trkpt>
      <trkpt lat="46.07439" lon="6.31477">
        <ele>527.9</ele>
        <time>2020-04-19T08:39:23Z</time>
      </trkpt>
      <trkpt lat="46.0743" lon="6.31495">
        <ele>526.94</ele>
        <time>2020-04-19T08:39:24Z</time>
      </trkpt>
      <trkpt lat="46.0743" lon="6.31495">
        <ele>525.5</ele>
        <time>2020-04-19T08:39:25Z</time>
      </trkpt>
      <trkpt lat="46.07426" lon="6.31506">
        <ele>524.06</ele>
        <time>2020-04-19T08:39:26Z</time>
      </trkpt>
      <trkpt lat="46.07406" lon="6.31582">
        <ele>520.69</ele>
        <time>2020-04-19T08:39:34Z</time>
      </trkpt>
      <trkpt lat="46.07404" lon="6.3159">
        <ele>519.73</ele>
        <time>2020-04-19T08:39:43Z</time>
      </trkpt>
      <trkpt lat="46.07404" lon="6.3159">
        <ele>519.73</ele>
        <time>2020-04-19T08:40:46Z</time>
      </trkpt>
      <trkpt lat="46.07401" lon="6.31601">
        <ele>519.25</ele>
        <time>2020-04-19T08:40:56Z</time>
      </trkpt>
      <trkpt lat="46.07383" lon="6.31676">
        <ele>518.77</ele>
        <time>2020-04-19T08:41:01Z</time>
      </trkpt>
      <trkpt lat="46.07382" lon="6.31682">
        <ele>518.29</ele>
        <time>2020-04-19T08:41:02Z</time>
      </trkpt>
      <trkpt lat="46.07381" lon="6.31687">
        <ele>518.29</ele>
        <time>2020-04-19T08:41:03Z</time>
      </trkpt>
      <trkpt lat="46.07381" lon="6.31687">
        <ele>518.29</ele>
        <time>2020-04-19T08:41:04Z</time>
      </trkpt>
      <trkpt lat="46.07379" lon="6.31693">
        <ele>518.29</ele>
        <time>2020-04-19T08:41:05Z</time>
      </trkpt>
      <trkpt lat="46.07379" lon="6.31697">
        <ele>518.29</ele>
        <time>2020-04-19T08:41:06Z</time>
      </trkpt>
      <trkpt lat="46.0738" lon="6.31697">
        <ele>518.29</ele>
        <time>2020-04-19T08:41:07Z</time>
      </trkpt>
      <trkpt lat="46.07382" lon="6.31698">
        <ele>517.81</ele>
        <time>2020-04-19T08:41:08Z</time>
      </trkpt>
      <trkpt lat="46.0738" lon="6.3169">
        <ele>517.81</ele>
        <time>2020-04-19T08:41:09Z</time>
      </trkpt>
      <trkpt lat="46.07381" lon="6.31687">
        <ele>517.81</ele>
        <time>2020-04-19T08:41:10Z</time>
      </trkpt>
      <trkpt lat="46.07382" lon="6.31682">
        <ele>518.29</ele>
        <time>2020-04-19T08:41:11Z</time>
      </trkpt>
      <trkpt lat="46.07384" lon="6.31673">
        <ele>518.29</ele>
        <time>2020-04-19T08:41:12Z</time>
      </trkpt>
      <trkpt lat="46.07392" lon="6.31642">
        <ele>518.77</ele>
        <time>2020-04-19T08:41:13Z</time>
      </trkpt>
      <trkpt lat="46.07428" lon="6.315">
        <ele>523.09</ele>
        <time>2020-04-19T08:41:21Z</time>
      </trkpt>
      <trkpt lat="46.07433" lon="6.31488">
        <ele>523.09</ele>
        <time>2020-04-19T08:41:22Z</time>
      </trkpt>
      <trkpt lat="46.07439" lon="6.31477">
        <ele>523.09</ele>
        <time>2020-04-19T08:41:23Z</time>
      </trkpt>
      <trkpt lat="46.07444" lon="6.31468">
        <ele>523.09</ele>
        <time>2020-04-19T08:41:24Z</time>
      </trkpt>
      <trkpt lat="46.07449" lon="6.3146">
        <ele>523.09</ele>
        <time>2020-04-19T08:41:25Z</time>
      </trkpt>
      <trkpt lat="46.07451" lon="6.31454">
        <ele>522.61</ele>
        <time>2020-04-19T08:41:26Z</time>
      </trkpt>
      <trkpt lat="46.07451" lon="6.31454">
        <ele>522.61</ele>
        <time>2020-04-19T08:41:27Z</time>
      </trkpt>
      <trkpt lat="46.0745" lon="6.31443">
        <ele>522.61</ele>
        <time>2020-04-19T08:41:28Z</time>
      </trkpt>
      <trkpt lat="46.07442" lon="6.3142">
        <ele>523.09</ele>
        <time>2020-04-19T08:41:29Z</time>
      </trkpt>
      <trkpt lat="46.07436" lon="6.31408">
        <ele>523.58</ele>
        <time>2020-04-19T08:41:30Z</time>
      </trkpt>
      <trkpt lat="46.07436" lon="6.31408">
        <ele>523.58</ele>
        <time>2020-04-19T08:41:31Z</time>
      </trkpt>
      <trkpt lat="46.07443" lon="6.31379">
        <ele>524.06</ele>
        <time>2020-04-19T08:41:32Z</time>
      </trkpt>
      <trkpt lat="46.07437" lon="6.31343">
        <ele>524.54</ele>
        <time>2020-04-19T08:41:33Z</time>
      </trkpt>
      <trkpt lat="46.07435" lon="6.31324">
        <ele>525.02</ele>
        <time>2020-04-19T08:41:34Z</time>
      </trkpt>
      <trkpt lat="46.07436" lon="6.31304">
        <ele>525.5</ele>
        <time>2020-04-19T08:41:35Z</time>
      </trkpt>
      <trkpt lat="46.07447" lon="6.31258">
        <ele>526.94</ele>
        <time>2020-04-19T08:41:37Z</time>
      </trkpt>
      <trkpt lat="46.07455" lon="6.31229">
        <ele>527.42</ele>
        <time>2020-04-19T08:41:38Z</time>
      </trkpt>
      <trkpt lat="46.07461" lon="6.31197">
        <ele>528.38</ele>
        <time>2020-04-19T08:41:39Z</time>
      </trkpt>
      <trkpt lat="46.07467" lon="6.31162">
        <ele>528.86</ele>
        <time>2020-04-19T08:41:40Z</time>
      </trkpt>
      <trkpt lat="46.0747" lon="6.31124">
        <ele>529.82</ele>
        <time>2020-04-19T08:41:41Z</time>
      </trkpt>
      <trkpt lat="46.07483" lon="6.30846">
        <ele>538.48</ele>
        <time>2020-04-19T08:41:48Z</time>
      </trkpt>
      <trkpt lat="46.07523" lon="6.3065">
        <ele>546.65</ele>
        <time>2020-04-19T08:41:54Z</time>
      </trkpt>
      <trkpt lat="46.07575" lon="6.30513">
        <ele>551.45</ele>
        <time>2020-04-19T08:42:00Z</time>
      </trkpt>
      <trkpt lat="46.07596" lon="6.30468">
        <ele>552.9</ele>
        <time>2020-04-19T08:42:03Z</time>
      </trkpt>
      <trkpt lat="46.07602" lon="6.30458">
        <ele>553.38</ele>
        <time>2020-04-19T08:42:04Z</time>
      </trkpt>
      <trkpt lat="46.07615" lon="6.30459">
        <ele>553.86</ele>
        <time>2020-04-19T08:42:06Z</time>
      </trkpt>
      <trkpt lat="46.07626" lon="6.30448">
        <ele>553.86</ele>
        <time>2020-04-19T08:42:07Z</time>
      </trkpt>
      <trkpt lat="46.07629" lon="6.3044">
        <ele>554.34</ele>
        <time>2020-04-19T08:42:08Z</time>
      </trkpt>
      <trkpt lat="46.07627" lon="6.30427">
        <ele>554.82</ele>
        <time>2020-04-19T08:42:09Z</time>
      </trkpt>
      <trkpt lat="46.0762" lon="6.30419">
        <ele>554.82</ele>
        <time>2020-04-19T08:42:10Z</time>
      </trkpt>
      <trkpt lat="46.0762" lon="6.30419">
        <ele>554.82</ele>
        <time>2020-04-19T08:42:11Z</time>
      </trkpt>
      <trkpt lat="46.07606" lon="6.30418">
        <ele>554.82</ele>
        <time>2020-04-19T08:42:12Z</time>
      </trkpt>
      <trkpt lat="46.0759" lon="6.30422">
        <ele>555.3</ele>
        <time>2020-04-19T08:42:13Z</time>
      </trkpt>
      <trkpt lat="46.07576" lon="6.30409">
        <ele>555.3</ele>
        <time>2020-04-19T08:42:14Z</time>
      </trkpt>
      <trkpt lat="46.07567" lon="6.30404">
        <ele>555.78</ele>
        <time>2020-04-19T08:42:15Z</time>
      </trkpt>
      <trkpt lat="46.07553" lon="6.30401">
        <ele>556.26</ele>
        <time>2020-04-19T08:42:16Z</time>
      </trkpt>
      <trkpt lat="46.07392" lon="6.30403">
        <ele>562.51</ele>
        <time>2020-04-19T08:42:27Z</time>
      </trkpt>
      <trkpt lat="46.07309" lon="6.30438">
        <ele>564.43</ele>
        <time>2020-04-19T08:42:33Z</time>
      </trkpt>
      <trkpt lat="46.07273" lon="6.30462">
        <ele>563.95</ele>
        <time>2020-04-19T08:42:36Z</time>
      </trkpt>
      <trkpt lat="46.07273" lon="6.30462">
        <ele>563.95</ele>
        <time>2020-04-19T08:42:37Z</time>
      </trkpt>
      <trkpt lat="46.07258" lon="6.30447">
        <ele>563.95</ele>
        <time>2020-04-19T08:42:38Z</time>
      </trkpt>
      <trkpt lat="46.07258" lon="6.30447">
        <ele>563.95</ele>
        <time>2020-04-19T08:42:39Z</time>
      </trkpt>
      <trkpt lat="46.07254" lon="6.30434">
        <ele>564.43</ele>
        <time>2020-04-19T08:42:40Z</time>
      </trkpt>
      <trkpt lat="46.07249" lon="6.30422">
        <ele>564.91</ele>
        <time>2020-04-19T08:42:41Z</time>
      </trkpt>
      <trkpt lat="46.07243" lon="6.30405">
        <ele>565.39</ele>
        <time>2020-04-19T08:42:42Z</time>
      </trkpt>
      <trkpt lat="46.07234" lon="6.30409">
        <ele>565.87</ele>
        <time>2020-04-19T08:42:43Z</time>
      </trkpt>
      <trkpt lat="46.07225" lon="6.30412">
        <ele>566.35</ele>
        <time>2020-04-19T08:42:44Z</time>
      </trkpt>
      <trkpt lat="46.07212" lon="6.30417">
        <ele>567.32</ele>
        <time>2020-04-19T08:42:45Z</time>
      </trkpt>
      <trkpt lat="46.07086" lon="6.30473">
        <ele>571.16</ele>
        <time>2020-04-19T08:42:56Z</time>
      </trkpt>
      <trkpt lat="46.07076" lon="6.30478">
        <ele>571.64</ele>
        <time>2020-04-19T08:42:57Z</time>
      </trkpt>
      <trkpt lat="46.07021" lon="6.30518">
        <ele>573.56</ele>
        <time>2020-04-19T08:43:02Z</time>
      </trkpt>
      <trkpt lat="46.07015" lon="6.3052">
        <ele>574.53</ele>
        <time>2020-04-19T08:43:03Z</time>
      </trkpt>
      <trkpt lat="46.07015" lon="6.3052">
        <ele>575.01</ele>
        <time>2020-04-19T08:43:04Z</time>
      </trkpt>
      <trkpt lat="46.07003" lon="6.30506">
        <ele>575.49</ele>
        <time>2020-04-19T08:43:05Z</time>
      </trkpt>
      <trkpt lat="46.07003" lon="6.30506">
        <ele>575.97</ele>
        <time>2020-04-19T08:43:06Z</time>
      </trkpt>
      <trkpt lat="46.06998" lon="6.30506">
        <ele>576.45</ele>
        <time>2020-04-19T08:43:07Z</time>
      </trkpt>
      <trkpt lat="46.06991" lon="6.30515">
        <ele>576.93</ele>
        <time>2020-04-19T08:43:08Z</time>
      </trkpt>
      <trkpt lat="46.0699" lon="6.30539">
        <ele>576.93</ele>
        <time>2020-04-19T08:43:09Z</time>
      </trkpt>
      <trkpt lat="46.06986" lon="6.30552">
        <ele>576.45</ele>
        <time>2020-04-19T08:43:10Z</time>
      </trkpt>
      <trkpt lat="46.06983" lon="6.30565">
        <ele>575.97</ele>
        <time>2020-04-19T08:43:11Z</time>
      </trkpt>
      <trkpt lat="46.06981" lon="6.30577">
        <ele>575.01</ele>
        <time>2020-04-19T08:43:13Z</time>
      </trkpt>
      <trkpt lat="46.06979" lon="6.30586">
        <ele>574.04</ele>
        <time>2020-04-19T08:43:14Z</time>
      </trkpt>
      <trkpt lat="46.06964" lon="6.30587">
        <ele>573.08</ele>
        <time>2020-04-19T08:43:15Z</time>
      </trkpt>
      <trkpt lat="46.0696" lon="6.30592">
        <ele>572.6</ele>
        <time>2020-04-19T08:43:16Z</time>
      </trkpt>
      <trkpt lat="46.06954" lon="6.306">
        <ele>572.12</ele>
        <time>2020-04-19T08:43:17Z</time>
      </trkpt>
      <trkpt lat="46.06947" lon="6.30609">
        <ele>571.16</ele>
        <time>2020-04-19T08:43:18Z</time>
      </trkpt>
      <trkpt lat="46.0694" lon="6.30618">
        <ele>570.68</ele>
        <time>2020-04-19T08:43:19Z</time>
      </trkpt>
      <trkpt lat="46.06876" lon="6.30703">
        <ele>567.32</ele>
        <time>2020-04-19T08:43:28Z</time>
      </trkpt>
      <trkpt lat="46.06869" lon="6.30712">
        <ele>567.32</ele>
        <time>2020-04-19T08:43:29Z</time>
      </trkpt>
      <trkpt lat="46.06861" lon="6.30721">
        <ele>567.32</ele>
        <time>2020-04-19T08:43:30Z</time>
      </trkpt>
      <trkpt lat="46.06805" lon="6.30762">
        <ele>568.28</ele>
        <time>2020-04-19T08:43:38Z</time>
      </trkpt>
      <trkpt lat="46.06803" lon="6.30763">
        <ele>568.28</ele>
        <time>2020-04-19T08:43:39Z</time>
      </trkpt>
      <trkpt lat="46.06798" lon="6.30759">
        <ele>567.8</ele>
        <time>2020-04-19T08:43:40Z</time>
      </trkpt>
      <trkpt lat="46.06797" lon="6.30755">
        <ele>567.8</ele>
        <time>2020-04-19T08:43:41Z</time>
      </trkpt>
      <trkpt lat="46.06795" lon="6.30747">
        <ele>567.8</ele>
        <time>2020-04-19T08:43:42Z</time>
      </trkpt>
      <trkpt lat="46.06793" lon="6.30734">
        <ele>568.28</ele>
        <time>2020-04-19T08:43:43Z</time>
      </trkpt>
      <trkpt lat="46.06785" lon="6.30681">
        <ele>569.72</ele>
        <time>2020-04-19T08:43:46Z</time>
      </trkpt>
      <trkpt lat="46.06784" lon="6.30665">
        <ele>570.2</ele>
        <time>2020-04-19T08:43:47Z</time>
      </trkpt>
      <trkpt lat="46.06784" lon="6.30651">
        <ele>571.16</ele>
        <time>2020-04-19T08:43:48Z</time>
      </trkpt>
      <trkpt lat="46.06783" lon="6.30632">
        <ele>571.64</ele>
        <time>2020-04-19T08:43:49Z</time>
      </trkpt>
      <trkpt lat="46.06783" lon="6.30629">
        <ele>572.12</ele>
        <time>2020-04-19T08:43:50Z</time>
      </trkpt>
      <trkpt lat="46.06778" lon="6.30629">
        <ele>572.6</ele>
        <time>2020-04-19T08:43:51Z</time>
      </trkpt>
      <trkpt lat="46.06778" lon="6.30629">
        <ele>573.08</ele>
        <time>2020-04-19T08:43:52Z</time>
      </trkpt>
      <trkpt lat="46.06775" lon="6.30635">
        <ele>574.04</ele>
        <time>2020-04-19T08:43:53Z</time>
      </trkpt>
      <trkpt lat="46.06771" lon="6.30645">
        <ele>574.53</ele>
        <time>2020-04-19T08:43:54Z</time>
      </trkpt>
      <trkpt lat="46.06765" lon="6.30658">
        <ele>574.53</ele>
        <time>2020-04-19T08:43:55Z</time>
      </trkpt>
      <trkpt lat="46.06736" lon="6.30721">
        <ele>575.01</ele>
        <time>2020-04-19T08:43:59Z</time>
      </trkpt>
      <trkpt lat="46.06719" lon="6.30752">
        <ele>574.53</ele>
        <time>2020-04-19T08:44:00Z</time>
      </trkpt>
      <trkpt lat="46.06711" lon="6.30768">
        <ele>574.53</ele>
        <time>2020-04-19T08:44:01Z</time>
      </trkpt>
      <trkpt lat="46.06677" lon="6.3083">
        <ele>573.56</ele>
        <time>2020-04-19T08:44:05Z</time>
      </trkpt>
      <trkpt lat="46.06669" lon="6.30845">
        <ele>573.08</ele>
        <time>2020-04-19T08:44:06Z</time>
      </trkpt>
      <trkpt lat="46.06661" lon="6.30859">
        <ele>573.08</ele>
        <time>2020-04-19T08:44:07Z</time>
      </trkpt>
      <trkpt lat="46.06654" lon="6.30871">
        <ele>573.08</ele>
        <time>2020-04-19T08:44:08Z</time>
      </trkpt>
      <trkpt lat="46.06649" lon="6.30882">
        <ele>572.6</ele>
        <time>2020-04-19T08:44:09Z</time>
      </trkpt>
      <trkpt lat="46.06649" lon="6.30882">
        <ele>572.6</ele>
        <time>2020-04-19T08:44:10Z</time>
      </trkpt>
      <trkpt lat="46.06644" lon="6.3089">
        <ele>572.12</ele>
        <time>2020-04-19T08:44:11Z</time>
      </trkpt>
      <trkpt lat="46.06641" lon="6.30896">
        <ele>572.12</ele>
        <time>2020-04-19T08:44:12Z</time>
      </trkpt>
      <trkpt lat="46.06639" lon="6.30906">
        <ele>572.12</ele>
        <time>2020-04-19T08:44:13Z</time>
      </trkpt>
      <trkpt lat="46.06643" lon="6.30908">
        <ele>572.12</ele>
        <time>2020-04-19T08:44:14Z</time>
      </trkpt>
      <trkpt lat="46.06648" lon="6.30911">
        <ele>572.12</ele>
        <time>2020-04-19T08:44:15Z</time>
      </trkpt>
      <trkpt lat="46.06656" lon="6.3091">
        <ele>572.12</ele>
        <time>2020-04-19T08:44:16Z</time>
      </trkpt>
      <trkpt lat="46.06682" lon="6.30903">
        <ele>573.08</ele>
        <time>2020-04-19T08:44:19Z</time>
      </trkpt>
      <trkpt lat="46.0669" lon="6.30901">
        <ele>573.08</ele>
        <time>2020-04-19T08:44:20Z</time>
      </trkpt>
      <trkpt lat="46.06696" lon="6.30894">
        <ele>573.56</ele>
        <time>2020-04-19T08:44:21Z</time>
      </trkpt>
      <trkpt lat="46.06746" lon="6.30817">
        <ele>574.04</ele>
        <time>2020-04-19T08:44:27Z</time>
      </trkpt>
      <trkpt lat="46.06746" lon="6.30817">
        <ele>574.04</ele>
        <time>2020-04-19T08:44:28Z</time>
      </trkpt>
      <trkpt lat="46.06749" lon="6.30813">
        <ele>573.56</ele>
        <time>2020-04-19T08:44:29Z</time>
      </trkpt>
      <trkpt lat="46.06749" lon="6.30813">
        <ele>573.56</ele>
        <time>2020-04-19T08:44:38Z</time>
      </trkpt>
      <trkpt lat="46.06742" lon="6.30798">
        <ele>571.16</ele>
        <time>2020-04-19T08:45:06Z</time>
      </trkpt>
    </trkseg>
  </trk>
</gpx>